CheckWX is a tool to help pilots better visualize weather data.  It is not intended as a substitute for an official pre-flight weather briefing.

18:58:59 UTC

EDDT TAF
Berlin-Tegel International Airport
Berlin, Germany
TAF EDDT 141700Z 1418/1518 24012KT 9999 SCT020 TEMPO 1418/1502 24015G25KT PROB40 TEMPO 1420/1422 4500 RA BKN014

Dec-14@
18:00 UTC

Dec-14 @ 18:00 UTC

Dec-15@
18:00 UTC

Dec-15 @ 18:00 UTC

TAF EDDT 141700Z 1418/1518 24012KT 9999 SCT020
Wind
  • 240° at 12 KTS
Cloud Levels
  • Scattered at 2,000' AGL

Dec-14@
18:00 UTC

Dec-14 @ 18:00 UTC

Dec-15@
02:00 UTC

Dec-15 @ 02:00 UTC

TEMPO 1418/1502 24015G25KT

Temporary

Temporary Changes expected for less than half the time period

Wind
  • 240° at 15 KTS
  • {Gusting to 25 KTS

Dec-14@
20:00 UTC

Dec-14 @ 20:00 UTC

Dec-14@
22:00 UTC

Dec-14 @ 22:00 UTC

PROB40 TEMPO 1420/1422 4500 RA BKN014

Temporary - 40% Likelihood

Temporary - 40% Likelihood during this time.

Conditions
Rain
Cloud Levels
  • Broken at 1,400' AGL